Latest Coastal Weather Observations for Mardie

IDW60701

Issued at 12:22 am WST Friday 29 July 2016 (issued every 10 minutes, with the page automatically refreshed every 10 minutes)

About coastal observations | Map of coastal stations | Coastal observations for WA | Marine services | Other Formats
Station Details ID: 005008 Name: MARDIE Lat: -21.19 Lon: 115.98 Height: 11.0 m
Data from the previous 72 hours. | See also: Recent months at Mardie
Date/Time
WST
Temp
°C
Wind Pressure Rain since
9am
mm
Weather Cloud Vis
km
Sea
Height
m
Swell
Dir  Spd
kts
Gust
kts
hPa Trend Height
m
Period
s
Dir
29/12:00am 17.3 ENE 4 5 1017.7 - 0.0 - - - - - - -
 
Date/Time
WST
Temp
°C
Wind Pressure Rain since
9am
mm
Weather Cloud Vis
km
Sea
Height
m
Swell
Dir  Spd
kts
Gust
kts
hPa Trend Height
m
Period
s
Dir
28/11:30pm 17.2 ENE 4 4 1017.8 - 0.0 - - - - - - -
28/11:00pm 17.7 ENE 4 4 1018.0 - 0.0 - - - - - - -
28/10:30pm 18.6 ENE 4 5 1018.1 - 0.0 - - - - - - -
28/10:00pm 18.8 NE 5 5 1018.2 - 0.0 - - - - - - -
28/09:30pm 18.8 NE 3 4 1018.3 - 0.0 - - - - - - -
28/09:00pm 19.2 NE 3 4 1018.4 - 0.0 - - - - - - -
28/08:30pm 20.6 NE 4 5 1018.3 - 0.0 - - - - - - -
28/08:00pm 21.0 NE 4 5 1018.1 - 0.0 - - - - - - -
28/07:30pm 22.3 NE 5 6 1017.8 - 0.0 - - - - - - -
28/07:00pm 23.7 NE 7 9 1017.7 - 0.0 - - - - - - -
28/06:30pm 24.4 NE 7 9 1017.3 - 0.0 - - - - - - -
28/06:00pm 25.8 NE 8 11 1017.1 - 0.0 - - - - - - -
28/05:30pm 27.3 NE 11 15 1016.9 - 0.0 - - - - - - -
28/05:00pm 28.1 NE 14 19 1016.7 - 0.0 - - - - - - -
28/04:30pm 28.8 NE 17 22 1016.6 - 0.0 - - - - - - -
28/04:00pm 29.2 NE 18 25 1016.2 - 0.0 - - - - - - -
28/03:30pm 29.7 NE 18 23 1016.0 - 0.0 - - - - - - -
28/03:00pm 29.9 NE 21 28 1015.9 - 0.0 - - - - - - -
28/02:44pm 30.4 NE 18 26 1015.8 - 0.0 - - - - - - -
28/02:30pm 30.3 ENE 20 27 1015.9 - 0.0 - - - - - - -
28/02:00pm 30.6 NE 20 27 1016.1 - 0.0 - - - - - - -
28/01:38pm 30.4 NE 18 28 1016.2 - 0.0 - - - - - - -
28/01:30pm 30.5 NE 19 25 1016.2 - 0.0 - - - - - - -
28/01:00pm 30.4 NE 21 28 1016.5 - 0.0 - - - - - - -
28/12:30pm 30.3 NE 20 27 1017.0 - 0.0 - - - - - - -
28/12:00pm 29.6 ENE 18 25 1017.5 - 0.0 - - - - - - -
28/11:30am 29.1 ENE 23 30 1017.7 - 0.0 - - - - - - -
28/11:00am 28.8 ENE 20 27 1018.0 - 0.0 - - - - - - -
28/10:30am 28.0 ENE 20 28 1018.2 - 0.0 - - - - - - -
28/10:00am 27.2 ENE 21 27 1018.6 - 0.0 - - - - - - -
28/09:30am 26.4 ENE 17 27 1018.9 - 0.0 - - - - - - -
28/09:27am 26.5 E 17 24 1018.9 - 0.0 - - - - - - -
28/09:00am 24.3 E 11 14 1018.9 - 0.0 - - - - - - -
28/08:30am 21.9 E 10 13 1018.9 - 0.0 - - - - - - -
28/08:00am 20.1 ESE 9 11 1018.7 - 0.0 - - - - - - -
28/07:30am 17.9 ESE 8 10 1018.4 - 0.0 - - - - - - -
28/07:00am 16.4 ESE 7 8 1018.3 - 0.0 - - - - - - -
28/06:30am 16.2 ESE 7 8 1018.1 - 0.0 - - - - - - -
28/06:00am 15.2 SE 6 7 1017.8 - 0.0 - - - - - - -
28/05:30am 15.0 SE 6 7 1017.6 - 0.0 - - - - - - -
28/05:00am 15.0 SE 5 6 1017.3 - 0.0 - - - - - - -
28/04:30am 15.6 SE 6 6 1017.2 - 0.0 - - - - - - -
28/04:00am 15.3 SE 5 6 1017.2 - 0.0 - - - - - - -
28/03:30am 15.3 SSE 5 5 1017.2 - 0.0 - - - - - - -
28/03:00am 15.1 S 4 5 1017.5 - 0.0 - - - - - - -
28/02:30am 15.2 SSW 4 4 1017.6 - 0.0 - - - - - - -
28/02:00am 15.3 SSW 3 4 1017.6 - 0.0 - - - - - - -
28/01:30am 15.5 SSW 4 4 1017.7 - 0.0 - - - - - - -
28/01:00am 15.7 SSW 4 4 1017.7 - 0.0 - - - - - - -
28/12:30am 16.0 SSW 4 5 1017.7 - 0.0 - - - - - - -
28/12:00am 16.3 SSW 4 5 1017.8 - 0.0 - - - - - - -
 
Date/Time
WST
Temp
°C
Wind Pressure Rain since
9am
mm
Weather Cloud Vis
km
Sea
Height
m
Swell
Dir  Spd
kts
Gust
kts
hPa Trend Height
m
Period
s
Dir
27/11:30pm 17.2 SSW 6 7 1018.0 - 0.0 - - - - - - -
27/11:00pm 18.1 S 8 10 1018.2 - 0.0 - - - - - - -
27/10:30pm 18.1 S 7 8 1018.2 - 0.0 - - - - - - -
27/10:00pm 17.6 SW 4 5 1018.0 - 0.0 - - - - - - -
27/09:30pm 17.5 SW 4 5 1018.0 - 0.0 - - - - - - -
27/09:00pm 18.1 SW 4 5 1017.9 - 0.0 - - - - - - -
27/08:30pm 19.1 SW 3 3 1017.8 - 0.0 - - - - - - -
27/08:00pm 19.4 SW 3 4 1017.7 - 0.0 - - - - - - -
27/07:30pm 20.1 WSW 3 4 1017.5 - 0.0 - - - - - - -
27/07:00pm 20.6 N 3 4 1017.0 - 0.0 - - - - - - -
27/06:30pm 22.4 N 2 3 1016.7 - 0.0 - - - - - - -
27/06:00pm 23.8 N 2 3 1016.3 - 0.0 - - - - - - -
27/05:30pm 25.4 N 3 5 1016.0 - 0.0 - - - - - - -
27/05:00pm 26.6 N 4 8 1015.8 - 0.0 - - - - - - -
27/04:30pm 27.2 N 5 8 1015.8 - 0.0 - - - - - - -
27/04:00pm 28.1 N 5 8 1015.5 - 0.0 - - - - - - -
27/03:30pm 29.3 NE 7 11 1015.6 - 0.0 - - - - - - -
27/03:00pm 29.7 NE 7 11 1015.4 - 0.0 - - - - - - -
27/02:30pm 29.6 NE 9 14 1015.4 - 0.0 - - - - - - -
27/02:00pm 29.6 ENE 10 15 1015.7 - 0.0 - - - - - - -
27/01:30pm 28.7 ENE 10 14 1016.3 - 0.0 - - - - - - -
27/01:00pm 28.4 E 13 19 1016.6 - 0.0 - - - - - - -
27/12:30pm 27.7 ENE 15 20 1017.0 - 0.0 - - - - - - -
27/12:00pm 27.6 E 13 18 1017.6 - 0.0 - - - - - - -
27/11:30am 26.6 E 13 19 1018.0 - 0.0 - - - - - - -
27/11:00am 26.1 E 15 20 1018.3 - 0.0 - - - - - - -
27/10:30am 24.8 E 16 20 1018.8 - 0.0 - - - - - - -
27/10:00am 23.7 E 14 17 1019.3 - 0.0 - - - - - - -
27/09:30am 22.6 E 14 18 1019.5 - 0.0 - - - - - - -
27/09:00am 21.1 E 16 19 1019.4 - 0.0 - - - - - - -
27/08:30am 20.1 E 14 18 1019.1 - 0.0 - - - - - - -
27/08:00am 19.2 ESE 15 23 1018.9 - 0.0 - - - - - - -
27/07:30am 18.4 ESE 14 19 1018.4 - 0.0 - - - - - - -
27/07:00am 18.1 ESE 14 17 1018.0 - 0.0 - - - - - - -
27/06:30am 18.3 ESE 14 19 1018.2 - 0.0 - - - - - - -
27/06:00am 18.4 ESE 14 20 1017.8 - 0.0 - - - - - - -
27/05:30am 18.4 ESE 13 17 1017.8 - 0.0 - - - - - - -
27/05:00am 18.5 ESE 13 17 1017.4 - 0.0 - - - - - - -
27/04:30am 18.8 ESE 12 15 1017.4 - 0.0 - - - - - - -
27/04:00am 19.1 ESE 12 16 1017.4 - 0.0 - - - - - - -
27/03:30am 19.4 ESE 12 16 1017.2 - 0.0 - - - - - - -
27/03:00am 19.2 ESE 10 13 1017.5 - 0.0 - - - - - - -
27/02:30am 19.3 ESE 9 13 1017.6 - 0.0 - - - - - - -
27/02:00am 19.2 ESE 8 11 1017.8 - 0.0 - - - - - - -
27/01:30am 19.2 ESE 9 11 1017.7 - 0.0 - - - - - - -
27/01:00am 18.5 ESE 7 10 1017.8 - 0.0 - - - - - - -
27/12:30am 17.5 ESE 6 7 1017.9 - 0.0 - - - - - - -
27/12:00am 18.7 E 7 11 1018.1 - 0.0 - - - - - - -
 
Date/Time
WST
Temp
°C
Wind Pressure Rain since
9am
mm
Weather Cloud Vis
km
Sea
Height
m
Swell
Dir  Spd
kts
Gust
kts
hPa Trend Height
m
Period
s
Dir
26/11:30pm 18.3 ESE 3 6 1018.3 - 0.0 - - - - - - -
26/11:00pm 17.7 E 3 3 1018.4 - 0.0 - - - - - - -
26/10:30pm 18.0 E 4 5 1018.6 - 0.0 - - - - - - -
26/10:00pm 18.5 ESE 3 4 1018.5 - 0.0 - - - - - - -
26/09:30pm 19.0 CALM 0 0 1018.6 - 0.0 - - - - - - -
26/09:00pm 19.4 ESE 2 6 1018.7 - 0.0 - - - - - - -
26/08:30pm 20.1 W 1 2 1018.4 - 0.0 - - - - - - -
26/08:00pm 20.2 CALM 0 0 1018.2 - 0.0 - - - - - - -
26/07:30pm 20.4 CALM 0 0 1017.8 - 0.0 - - - - - - -
26/07:00pm 21.0 W 3 5 1017.4 - 0.0 - - - - - - -
26/06:30pm 21.6 W 4 5 1017.2 - 0.0 - - - - - - -
26/06:00pm 22.6 NW 4 5 1016.6 - 0.0 - - - - - - -
26/05:30pm 24.0 WNW 7 10 1016.3 - 0.0 - - - - - - -
26/05:00pm 25.4 NW 7 9 1016.1 - 0.0 - - - - - - -
26/04:30pm 25.9 NNW 6 8 1015.9 - 0.0 - - - - - - -
26/04:00pm 26.2 NW 7 12 1015.6 - 0.0 - - - - - - -
26/03:30pm 27.0 NNW 5 9 1015.5 - 0.0 - - - - - - -
26/03:00pm 27.9 W 8 14 1015.4 - 0.0 - - - - - - -
26/02:30pm 29.1 SE 6 10 1015.7 - 0.0 - - - - - - -
26/02:00pm 29.4 ESE 5 11 1015.9 - 0.0 - - - - - - -
26/01:30pm 28.6 E 7 11 1016.4 - 0.0 - - - - - - -
26/01:00pm 28.3 SE 6 11 1016.8 - 0.0 - - - - - - -
26/12:30pm 28.0 ESE 8 12 1017.4 - 0.0 - - - - - - -
26/12:00pm 27.9 ESE 9 12 1017.6 - 0.0 - - - - - - -
26/11:30am 28.0 E 10 13 1018.1 - 0.0 - - - - - - -
26/11:00am 27.1 E 10 13 1018.6 - 0.0 - - - - - - -
26/10:30am 26.2 E 12 15 1018.7 - 0.0 - - - - - - -
26/10:00am 25.6 ESE 13 18 1019.1 - 0.0 - - - - - - -
26/09:30am 24.6 ESE 15 19 1019.1 - 0.0 - - - - - - -
26/09:00am 24.0 ESE 14 17 1019.1 - 0.0 - - - - - - -
26/08:30am 23.0 E 12 17 1018.7 - 0.0 - - - - - - -
26/08:00am 21.8 ESE 10 13 1018.5 - 0.0 - - - - - - -
26/07:30am 20.4 ESE 7 9 1018.2 - 0.0 - - - - - - -
26/07:00am 20.1 E 10 13 1017.9 - 0.0 - - - - - - -
26/06:30am 18.9 E 7 9 1017.6 - 0.0 - - - - - - -
26/06:00am 19.0 ENE 7 8 1017.4 - 0.0 - - - - - - -
26/05:30am 18.5 E 4 5 1017.4 - 0.0 - - - - - - -
26/05:00am 19.1 ESE 6 7 1017.0 - 0.0 - - - - - - -
26/04:30am 19.2 SE 7 8 1016.5 - 0.0 - - - - - - -
26/04:00am 19.0 SE 5 7 1016.5 - 0.0 - - - - - - -
26/03:30am 18.8 ESE 6 6 1016.5 - 0.0 - - - - - - -
26/03:00am 19.1 ESE 5 5 1016.7 - 0.0 - - - - - - -
26/02:30am 19.3 SE 5 6 1016.7 - 0.0 - - - - - - -
26/02:00am 19.7 SE 5 5 1016.9 - 0.0 - - - - - - -
26/01:30am 20.6 SSE 6 7 1017.1 - 0.0 - - - - - - -
26/01:00am 19.8 SSW 4 5 1017.2 - 0.0 - - - - - - -
26/12:30am 20.1 SSW 3 3 1017.6 - 0.0 - - - - - - -

Other Formats:

Comma delimited format used in spreadsheet applications
http://www.bom.gov.au/fwo/IDW60701/IDW60701.94306.axf

JavaScript Object Notation format (JSON) in row-major order
http://www.bom.gov.au/fwo/IDW60701/IDW60701.94306.json